sensor_id;sensor_type;location;lat;lon;timestamp;P1;durP1;ratioP1;P2;durP2;ratioP2
5684;SDS011;2865;53.114;9.130;2023-07-09T00:01:52;12.63;;;5.57;;
5684;SDS011;2865;53.114;9.130;2023-07-09T00:04:18;6.57;;;4.67;;
5684;SDS011;2865;53.114;9.130;2023-07-09T00:06:43;5.50;;;5.00;;
5684;SDS011;2865;53.114;9.130;2023-07-09T00:09:13;6.13;;;5.37;;
5684;SDS011;2865;53.114;9.130;2023-07-09T00:11:38;5.53;;;4.93;;
5684;SDS011;2865;53.114;9.130;2023-07-09T00:14:04;8.87;;;6.10;;
5684;SDS011;2865;53.114;9.130;2023-07-09T00:16:28;5.70;;;4.30;;
5684;SDS011;2865;53.114;9.130;2023-07-09T00:18:54;6.57;;;5.60;;
5684;SDS011;2865;53.114;9.130;2023-07-09T00:21:20;7.77;;;5.20;;
5684;SDS011;2865;53.114;9.130;2023-07-09T00:23:45;5.50;;;5.00;;
5684;SDS011;2865;53.114;9.130;2023-07-09T00:26:12;6.10;;;4.73;;
5684;SDS011;2865;53.114;9.130;2023-07-09T00:28:36;5.47;;;4.97;;
5684;SDS011;2865;53.114;9.130;2023-07-09T00:31:02;6.80;;;5.57;;
5684;SDS011;2865;53.114;9.130;2023-07-09T00:33:27;5.10;;;4.70;;
5684;SDS011;2865;53.114;9.130;2023-07-09T00:35:53;4.90;;;4.40;;
5684;SDS011;2865;53.114;9.130;2023-07-09T00:38:19;11.83;;;5.60;;
5684;SDS011;2865;53.114;9.130;2023-07-09T00:40:45;7.30;;;4.63;;
5684;SDS011;2865;53.114;9.130;2023-07-09T00:43:12;6.60;;;5.30;;
5684;SDS011;2865;53.114;9.130;2023-07-09T00:45:36;6.20;;;4.60;;
5684;SDS011;2865;53.114;9.130;2023-07-09T00:48:02;5.33;;;4.83;;
5684;SDS011;2865;53.114;9.130;2023-07-09T00:50:33;6.73;;;5.13;;
5684;SDS011;2865;53.114;9.130;2023-07-09T00:52:59;6.57;;;5.57;;
5684;SDS011;2865;53.114;9.130;2023-07-09T00:55:25;7.63;;;5.23;;
5684;SDS011;2865;53.114;9.130;2023-07-09T00:57:49;8.97;;;5.90;;
5684;SDS011;2865;53.114;9.130;2023-07-09T01:00:15;5.77;;;5.27;;
5684;SDS011;2865;53.114;9.130;2023-07-09T01:02:40;7.30;;;5.23;;
5684;SDS011;2865;53.114;9.130;2023-07-09T01:05:06;5.53;;;4.70;;
5684;SDS011;2865;53.114;9.130;2023-07-09T01:07:32;6.63;;;5.63;;
5684;SDS011;2865;53.114;9.130;2023-07-09T01:09:57;10.17;;;5.43;;
5684;SDS011;2865;53.114;9.130;2023-07-09T01:12:22;5.43;;;4.93;;
5684;SDS011;2865;53.114;9.130;2023-07-09T01:14:48;6.73;;;5.30;;
5684;SDS011;2865;53.114;9.130;2023-07-09T01:17:14;5.47;;;4.97;;
5684;SDS011;2865;53.114;9.130;2023-07-09T01:19:41;8.43;;;5.20;;
5684;SDS011;2865;53.114;9.130;2023-07-09T01:22:05;6.73;;;5.07;;
5684;SDS011;2865;53.114;9.130;2023-07-09T01:27:08;5.90;;;5.30;;
5684;SDS011;2865;53.114;9.130;2023-07-09T01:29:34;5.33;;;4.83;;
5684;SDS011;2865;53.114;9.130;2023-07-09T01:31:59;9.70;;;5.40;;
5684;SDS011;2865;53.114;9.130;2023-07-09T01:34:24;5.37;;;4.80;;
5684;SDS011;2865;53.114;9.130;2023-07-09T01:36:50;6.13;;;5.53;;
5684;SDS011;2865;53.114;9.130;2023-07-09T01:39:15;5.80;;;5.30;;
5684;SDS011;2865;53.114;9.130;2023-07-09T01:41:41;6.23;;;4.87;;
5684;SDS011;2865;53.114;9.130;2023-07-09T01:44:06;5.77;;;5.20;;
5684;SDS011;2865;53.114;9.130;2023-07-09T01:46:32;5.47;;;4.37;;
5684;SDS011;2865;53.114;9.130;2023-07-09T01:48:57;7.03;;;5.50;;
5684;SDS011;2865;53.114;9.130;2023-07-09T01:51:23;5.73;;;4.77;;
5684;SDS011;2865;53.114;9.130;2023-07-09T01:53:48;7.43;;;5.47;;
5684;SDS011;2865;53.114;9.130;2023-07-09T01:56:14;6.67;;;5.60;;
5684;SDS011;2865;53.114;9.130;2023-07-09T01:58:39;5.73;;;5.17;;
5684;SDS011;2865;53.114;9.130;2023-07-09T02:01:05;7.40;;;4.80;;
5684;SDS011;2865;53.114;9.130;2023-07-09T02:03:30;8.80;;;5.60;;
5684;SDS011;2865;53.114;9.130;2023-07-09T02:05:55;10.70;;;5.00;;
5684;SDS011;2865;53.114;9.130;2023-07-09T02:08:21;6.20;;;5.60;;
5684;SDS011;2865;53.114;9.130;2023-07-09T02:10:48;5.90;;;5.07;;
5684;SDS011;2865;53.114;9.130;2023-07-09T02:13:13;5.90;;;5.40;;
5684;SDS011;2865;53.114;9.130;2023-07-09T02:15:39;5.83;;;5.13;;
5684;SDS011;2865;53.114;9.130;2023-07-09T02:18:04;6.00;;;4.73;;
5684;SDS011;2865;53.114;9.130;2023-07-09T02:20:30;8.97;;;6.20;;
5684;SDS011;2865;53.114;9.130;2023-07-09T02:22:55;5.67;;;5.17;;
5684;SDS011;2865;53.114;9.130;2023-07-09T02:25:21;6.20;;;5.43;;
5684;SDS011;2865;53.114;9.130;2023-07-09T02:27:46;6.37;;;5.23;;
5684;SDS011;2865;53.114;9.130;2023-07-09T02:30:12;5.97;;;5.37;;
5684;SDS011;2865;53.114;9.130;2023-07-09T02:32:37;6.20;;;5.43;;
5684;SDS011;2865;53.114;9.130;2023-07-09T02:35:03;6.30;;;5.70;;
5684;SDS011;2865;53.114;9.130;2023-07-09T02:37:29;6.00;;;5.40;;
5684;SDS011;2865;53.114;9.130;2023-07-09T02:39:54;5.67;;;5.10;;
5684;SDS011;2865;53.114;9.130;2023-07-09T02:42:20;6.37;;;5.77;;
5684;SDS011;2865;53.114;9.130;2023-07-09T02:44:45;7.20;;;5.70;;
5684;SDS011;2865;53.114;9.130;2023-07-09T02:47:11;6.30;;;5.17;;
5684;SDS011;2865;53.114;9.130;2023-07-09T02:49:36;5.40;;;4.90;;
5684;SDS011;2865;53.114;9.130;2023-07-09T02:52:01;5.73;;;5.23;;
5684;SDS011;2865;53.114;9.130;2023-07-09T02:54:27;6.23;;;5.50;;
5684;SDS011;2865;53.114;9.130;2023-07-09T02:56:52;7.23;;;5.20;;
5684;SDS011;2865;53.114;9.130;2023-07-09T02:59:18;7.83;;;5.53;;
5684;SDS011;2865;53.114;9.130;2023-07-09T03:01:43;6.40;;;5.80;;
5684;SDS011;2865;53.114;9.130;2023-07-09T03:04:08;6.90;;;5.23;;
5684;SDS011;2865;53.114;9.130;2023-07-09T03:06:34;6.17;;;5.57;;
5684;SDS011;2865;53.114;9.130;2023-07-09T03:09:00;10.20;;;6.00;;
5684;SDS011;2865;53.114;9.130;2023-07-09T03:11:25;9.90;;;5.17;;
5684;SDS011;2865;53.114;9.130;2023-07-09T03:13:50;5.77;;;5.23;;
5684;SDS011;2865;53.114;9.130;2023-07-09T03:16:16;5.93;;;5.17;;
5684;SDS011;2865;53.114;9.130;2023-07-09T03:18:41;7.37;;;5.17;;
5684;SDS011;2865;53.114;9.130;2023-07-09T03:21:06;5.23;;;4.83;;
5684;SDS011;2865;53.114;9.130;2023-07-09T03:23:32;6.70;;;6.00;;
5684;SDS011;2865;53.114;9.130;2023-07-09T03:25:57;6.40;;;5.80;;
5684;SDS011;2865;53.114;9.130;2023-07-09T03:28:23;6.47;;;5.83;;
5684;SDS011;2865;53.114;9.130;2023-07-09T03:30:49;5.40;;;4.90;;
5684;SDS011;2865;53.114;9.130;2023-07-09T03:33:14;6.73;;;6.13;;
5684;SDS011;2865;53.114;9.130;2023-07-09T03:35:39;6.10;;;5.50;;
5684;SDS011;2865;53.114;9.130;2023-07-09T03:38:05;5.63;;;5.00;;
5684;SDS011;2865;53.114;9.130;2023-07-09T03:40:30;5.83;;;5.23;;
5684;SDS011;2865;53.114;9.130;2023-07-09T03:42:55;6.33;;;5.40;;
5684;SDS011;2865;53.114;9.130;2023-07-09T03:45:21;6.03;;;5.00;;
5684;SDS011;2865;53.114;9.130;2023-07-09T03:47:46;6.10;;;5.50;;
5684;SDS011;2865;53.114;9.130;2023-07-09T03:50:12;5.60;;;5.10;;
5684;SDS011;2865;53.114;9.130;2023-07-09T03:52:37;6.17;;;5.57;;
5684;SDS011;2865;53.114;9.130;2023-07-09T03:55:03;5.77;;;5.27;;
5684;SDS011;2865;53.114;9.130;2023-07-09T03:57:30;6.40;;;5.23;;
5684;SDS011;2865;53.114;9.130;2023-07-09T03:59:55;4.80;;;4.40;;
5684;SDS011;2865;53.114;9.130;2023-07-09T04:02:20;8.23;;;5.13;;
5684;SDS011;2865;53.114;9.130;2023-07-09T04:04:46;5.97;;;5.30;;
5684;SDS011;2865;53.114;9.130;2023-07-09T04:07:11;5.90;;;5.33;;
5684;SDS011;2865;53.114;9.130;2023-07-09T04:09:37;10.03;;;5.47;;
5684;SDS011;2865;53.114;9.130;2023-07-09T04:12:02;6.30;;;5.77;;
5684;SDS011;2865;53.114;9.130;2023-07-09T04:14:28;6.50;;;5.17;;
5684;SDS011;2865;53.114;9.130;2023-07-09T04:16:54;10.93;;;5.07;;
5684;SDS011;2865;53.114;9.130;2023-07-09T04:19:19;5.50;;;4.90;;
5684;SDS011;2865;53.114;9.130;2023-07-09T04:21:45;5.80;;;5.30;;
5684;SDS011;2865;53.114;9.130;2023-07-09T04:24:10;6.20;;;5.43;;
5684;SDS011;2865;53.114;9.130;2023-07-09T04:26:35;5.77;;;5.20;;
5684;SDS011;2865;53.114;9.130;2023-07-09T04:29:01;6.13;;;5.60;;
5684;SDS011;2865;53.114;9.130;2023-07-09T04:31:27;6.90;;;5.70;;
5684;SDS011;2865;53.114;9.130;2023-07-09T04:33:52;6.53;;;5.00;;
5684;SDS011;2865;53.114;9.130;2023-07-09T04:36:17;6.23;;;5.63;;
5684;SDS011;2865;53.114;9.130;2023-07-09T04:38:43;5.27;;;4.83;;
5684;SDS011;2865;53.114;9.130;2023-07-09T04:41:08;6.40;;;5.80;;
5684;SDS011;2865;53.114;9.130;2023-07-09T04:43:33;6.53;;;5.97;;
5684;SDS011;2865;53.114;9.130;2023-07-09T04:45:59;8.20;;;5.70;;
5684;SDS011;2865;53.114;9.130;2023-07-09T04:48:24;5.93;;;5.30;;
5684;SDS011;2865;53.114;9.130;2023-07-09T04:50:51;9.27;;;5.87;;
5684;SDS011;2865;53.114;9.130;2023-07-09T04:53:16;5.60;;;5.10;;
5684;SDS011;2865;53.114;9.130;2023-07-09T04:55:41;6.03;;;5.53;;
5684;SDS011;2865;53.114;9.130;2023-07-09T04:58:08;6.83;;;5.33;;
5684;SDS011;2865;53.114;9.130;2023-07-09T05:00:33;9.20;;;5.87;;
5684;SDS011;2865;53.114;9.130;2023-07-09T05:02:59;6.37;;;5.77;;
5684;SDS011;2865;53.114;9.130;2023-07-09T05:05:24;8.10;;;5.77;;
5684;SDS011;2865;53.114;9.130;2023-07-09T05:07:49;5.27;;;4.87;;
5684;SDS011;2865;53.114;9.130;2023-07-09T05:10:15;6.90;;;6.20;;
5684;SDS011;2865;53.114;9.130;2023-07-09T05:12:47;7.30;;;5.73;;
5684;SDS011;2865;53.114;9.130;2023-07-09T05:15:13;6.17;;;5.50;;
5684;SDS011;2865;53.114;9.130;2023-07-09T05:17:39;6.30;;;5.70;;
5684;SDS011;2865;53.114;9.130;2023-07-09T05:20:05;6.07;;;4.97;;
5684;SDS011;2865;53.114;9.130;2023-07-09T05:22:31;5.60;;;5.00;;
5684;SDS011;2865;53.114;9.130;2023-07-09T05:24:57;6.30;;;5.70;;
5684;SDS011;2865;53.114;9.130;2023-07-09T05:27:22;5.80;;;5.30;;
5684;SDS011;2865;53.114;9.130;2023-07-09T05:29:47;6.13;;;5.23;;
5684;SDS011;2865;53.114;9.130;2023-07-09T05:32:13;5.10;;;4.70;;
5684;SDS011;2865;53.114;9.130;2023-07-09T05:34:38;6.27;;;5.67;;
5684;SDS011;2865;53.114;9.130;2023-07-09T05:37:04;5.20;;;4.70;;
5684;SDS011;2865;53.114;9.130;2023-07-09T05:39:29;8.87;;;5.17;;
5684;SDS011;2865;53.114;9.130;2023-07-09T05:41:55;5.77;;;5.17;;
5684;SDS011;2865;53.114;9.130;2023-07-09T05:44:20;5.53;;;5.03;;
5684;SDS011;2865;53.114;9.130;2023-07-09T05:46:45;6.33;;;5.40;;
5684;SDS011;2865;53.114;9.130;2023-07-09T05:49:11;6.57;;;5.30;;
5684;SDS011;2865;53.114;9.130;2023-07-09T05:51:36;5.60;;;4.67;;
5684;SDS011;2865;53.114;9.130;2023-07-09T05:54:02;5.77;;;5.13;;
5684;SDS011;2865;53.114;9.130;2023-07-09T05:56:27;5.30;;;4.80;;
5684;SDS011;2865;53.114;9.130;2023-07-09T05:58:52;5.33;;;4.83;;
5684;SDS011;2865;53.114;9.130;2023-07-09T06:01:18;11.10;;;4.37;;
5684;SDS011;2865;53.114;9.130;2023-07-09T06:03:43;4.80;;;4.30;;
5684;SDS011;2865;53.114;9.130;2023-07-09T06:06:09;5.73;;;4.80;;
5684;SDS011;2865;53.114;9.130;2023-07-09T06:08:34;15.33;;;5.70;;
5684;SDS011;2865;53.114;9.130;2023-07-09T06:11:01;6.27;;;5.13;;
5684;SDS011;2865;53.114;9.130;2023-07-09T06:13:26;6.27;;;5.23;;
5684;SDS011;2865;53.114;9.130;2023-07-09T06:15:52;4.60;;;4.20;;
5684;SDS011;2865;53.114;9.130;2023-07-09T06:18:17;5.43;;;4.97;;
5684;SDS011;2865;53.114;9.130;2023-07-09T06:20:47;5.60;;;5.10;;
5684;SDS011;2865;53.114;9.130;2023-07-09T06:23:12;7.03;;;4.80;;
5684;SDS011;2865;53.114;9.130;2023-07-09T06:25:38;6.00;;;4.70;;
5684;SDS011;2865;53.114;9.130;2023-07-09T06:28:03;5.60;;;5.10;;
5684;SDS011;2865;53.114;9.130;2023-07-09T06:30:29;5.80;;;4.37;;
5684;SDS011;2865;53.114;9.130;2023-07-09T06:32:54;5.30;;;4.80;;
5684;SDS011;2865;53.114;9.130;2023-07-09T06:35:20;5.40;;;4.97;;
5684;SDS011;2865;53.114;9.130;2023-07-09T06:37:45;5.87;;;5.27;;
5684;SDS011;2865;53.114;9.130;2023-07-09T06:40:11;5.77;;;5.27;;
5684;SDS011;2865;53.114;9.130;2023-07-09T06:42:36;4.70;;;4.30;;
5684;SDS011;2865;53.114;9.130;2023-07-09T06:45:02;6.77;;;4.53;;
5684;SDS011;2865;53.114;9.130;2023-07-09T06:47:28;8.10;;;4.20;;
5684;SDS011;2865;53.114;9.130;2023-07-09T06:49:53;5.40;;;4.50;;
5684;SDS011;2865;53.114;9.130;2023-07-09T06:52:19;4.87;;;4.43;;
5684;SDS011;2865;53.114;9.130;2023-07-09T06:54:44;5.47;;;4.97;;
5684;SDS011;2865;53.114;9.130;2023-07-09T06:57:10;4.73;;;4.20;;
5684;SDS011;2865;53.114;9.130;2023-07-09T06:59:35;6.30;;;4.73;;
5684;SDS011;2865;53.114;9.130;2023-07-09T07:02:01;4.73;;;4.23;;
5684;SDS011;2865;53.114;9.130;2023-07-09T07:04:26;5.27;;;3.90;;
5684;SDS011;2865;53.114;9.130;2023-07-09T07:06:51;4.80;;;4.40;;
5684;SDS011;2865;53.114;9.130;2023-07-09T07:09:17;5.00;;;4.20;;
5684;SDS011;2865;53.114;9.130;2023-07-09T07:11:42;5.07;;;4.53;;
5684;SDS011;2865;53.114;9.130;2023-07-09T07:14:07;4.90;;;4.40;;
5684;SDS011;2865;53.114;9.130;2023-07-09T07:16:33;5.53;;;4.43;;
5684;SDS011;2865;53.114;9.130;2023-07-09T07:18:58;7.60;;;4.67;;
5684;SDS011;2865;53.114;9.130;2023-07-09T07:21:24;4.97;;;4.30;;
5684;SDS011;2865;53.114;9.130;2023-07-09T07:23:49;5.03;;;4.10;;
5684;SDS011;2865;53.114;9.130;2023-07-09T07:26:14;4.93;;;4.43;;
5684;SDS011;2865;53.114;9.130;2023-07-09T07:28:41;7.90;;;4.73;;
5684;SDS011;2865;53.114;9.130;2023-07-09T07:31:07;4.63;;;4.13;;
5684;SDS011;2865;53.114;9.130;2023-07-09T07:33:32;4.90;;;4.50;;
5684;SDS011;2865;53.114;9.130;2023-07-09T07:35:58;5.30;;;4.67;;
5684;SDS011;2865;53.114;9.130;2023-07-09T07:38:23;6.63;;;4.70;;
5684;SDS011;2865;53.114;9.130;2023-07-09T07:40:49;4.33;;;3.93;;
5684;SDS011;2865;53.114;9.130;2023-07-09T07:43:14;7.77;;;4.63;;
5684;SDS011;2865;53.114;9.130;2023-07-09T07:45:40;10.83;;;5.10;;
5684;SDS011;2865;53.114;9.130;2023-07-09T07:48:05;6.40;;;4.77;;
5684;SDS011;2865;53.114;9.130;2023-07-09T07:50:30;4.73;;;4.33;;
5684;SDS011;2865;53.114;9.130;2023-07-09T07:52:56;5.17;;;4.67;;
5684;SDS011;2865;53.114;9.130;2023-07-09T07:55:21;4.97;;;4.47;;
5684;SDS011;2865;53.114;9.130;2023-07-09T07:57:47;7.20;;;4.80;;
5684;SDS011;2865;53.114;9.130;2023-07-09T08:00:12;4.83;;;4.30;;
5684;SDS011;2865;53.114;9.130;2023-07-09T08:02:39;4.90;;;4.40;;
5684;SDS011;2865;53.114;9.130;2023-07-09T08:05:05;4.90;;;4.40;;
5684;SDS011;2865;53.114;9.130;2023-07-09T08:07:31;4.80;;;4.23;;
5684;SDS011;2865;53.114;9.130;2023-07-09T08:09:56;4.43;;;4.03;;
5684;SDS011;2865;53.114;9.130;2023-07-09T08:12:22;4.50;;;4.10;;
5684;SDS011;2865;53.114;9.130;2023-07-09T08:14:48;5.30;;;4.80;;
5684;SDS011;2865;53.114;9.130;2023-07-09T08:17:13;6.47;;;5.13;;
5684;SDS011;2865;53.114;9.130;2023-07-09T08:19:47;6.43;;;4.63;;
5684;SDS011;2865;53.114;9.130;2023-07-09T08:22:12;4.43;;;4.03;;
5684;SDS011;2865;53.114;9.130;2023-07-09T08:24:37;6.67;;;4.87;;
5684;SDS011;2865;53.114;9.130;2023-07-09T08:27:03;4.63;;;4.20;;
5684;SDS011;2865;53.114;9.130;2023-07-09T08:29:28;4.87;;;4.30;;
5684;SDS011;2865;53.114;9.130;2023-07-09T08:31:54;6.23;;;4.40;;
5684;SDS011;2865;53.114;9.130;2023-07-09T08:34:19;7.40;;;4.93;;
5684;SDS011;2865;53.114;9.130;2023-07-09T08:36:45;5.40;;;3.90;;
5684;SDS011;2865;53.114;9.130;2023-07-09T08:39:11;4.80;;;4.00;;
5684;SDS011;2865;53.114;9.130;2023-07-09T08:41:43;3.70;;;3.40;;
5684;SDS011;2865;53.114;9.130;2023-07-09T08:44:20;4.97;;;4.50;;
5684;SDS011;2865;53.114;9.130;2023-07-09T08:46:58;4.70;;;4.30;;
5684;SDS011;2865;53.114;9.130;2023-07-09T08:49:21;7.33;;;4.53;;
5684;SDS011;2865;53.114;9.130;2023-07-09T08:51:44;4.83;;;4.30;;
5684;SDS011;2865;53.114;9.130;2023-07-09T08:54:14;7.90;;;4.80;;
5684;SDS011;2865;53.114;9.130;2023-07-09T08:56:45;4.93;;;4.43;;
5684;SDS011;2865;53.114;9.130;2023-07-09T08:59:11;5.97;;;4.23;;
5684;SDS011;2865;53.114;9.130;2023-07-09T09:01:38;5.07;;;4.53;;
5684;SDS011;2865;53.114;9.130;2023-07-09T09:04:08;5.40;;;4.73;;
5684;SDS011;2865;53.114;9.130;2023-07-09T09:06:31;7.43;;;4.97;;
5684;SDS011;2865;53.114;9.130;2023-07-09T09:09:02;5.73;;;4.47;;
5684;SDS011;2865;53.114;9.130;2023-07-09T09:11:30;6.70;;;5.00;;
5684;SDS011;2865;53.114;9.130;2023-07-09T09:14:18;8.30;;;4.80;;
5684;SDS011;2865;53.114;9.130;2023-07-09T09:16:45;5.47;;;4.63;;
5684;SDS011;2865;53.114;9.130;2023-07-09T09:19:18;4.73;;;4.23;;
5684;SDS011;2865;53.114;9.130;2023-07-09T09:21:46;7.03;;;4.80;;
5684;SDS011;2865;53.114;9.130;2023-07-09T09:24:13;4.97;;;4.30;;
5684;SDS011;2865;53.114;9.130;2023-07-09T09:26:37;7.53;;;4.73;;
5684;SDS011;2865;53.114;9.130;2023-07-09T09:29:11;5.00;;;4.50;;
5684;SDS011;2865;53.114;9.130;2023-07-09T09:31:36;4.80;;;4.00;;
5684;SDS011;2865;53.114;9.130;2023-07-09T09:34:01;6.90;;;4.87;;
5684;SDS011;2865;53.114;9.130;2023-07-09T09:36:27;5.10;;;4.40;;
5684;SDS011;2865;53.114;9.130;2023-07-09T09:38:52;5.20;;;4.07;;
5684;SDS011;2865;53.114;9.130;2023-07-09T09:41:20;4.40;;;4.00;;
5684;SDS011;2865;53.114;9.130;2023-07-09T09:43:45;5.03;;;4.20;;
5684;SDS011;2865;53.114;9.130;2023-07-09T09:46:16;5.03;;;4.50;;
5684;SDS011;2865;53.114;9.130;2023-07-09T09:48:36;4.37;;;3.70;;
5684;SDS011;2865;53.114;9.130;2023-07-09T09:51:03;4.97;;;4.13;;
5684;SDS011;2865;53.114;9.130;2023-07-09T09:53:29;4.27;;;3.87;;
5684;SDS011;2865;53.114;9.130;2023-07-09T09:55:55;4.20;;;3.80;;
5684;SDS011;2865;53.114;9.130;2023-07-09T09:58:24;7.30;;;4.30;;
5684;SDS011;2865;53.114;9.130;2023-07-09T10:00:48;4.53;;;4.10;;
5684;SDS011;2865;53.114;9.130;2023-07-09T10:03:14;6.40;;;4.10;;
5684;SDS011;2865;53.114;9.130;2023-07-09T10:05:43;4.57;;;3.90;;
5684;SDS011;2865;53.114;9.130;2023-07-09T10:08:07;5.00;;;4.50;;
5684;SDS011;2865;53.114;9.130;2023-07-09T10:10:34;5.33;;;4.33;;
5684;SDS011;2865;53.114;9.130;2023-07-09T10:13:03;7.20;;;3.63;;
5684;SDS011;2865;53.114;9.130;2023-07-09T10:16:01;4.40;;;3.97;;
5684;SDS011;2865;53.114;9.130;2023-07-09T10:18:23;4.70;;;3.77;;
5684;SDS011;2865;53.114;9.130;2023-07-09T10:21:05;3.97;;;3.63;;
5684;SDS011;2865;53.114;9.130;2023-07-09T10:23:39;7.03;;;4.20;;
5684;SDS011;2865;53.114;9.130;2023-07-09T10:26:08;4.27;;;3.87;;
5684;SDS011;2865;53.114;9.130;2023-07-09T10:29:17;6.20;;;4.53;;
5684;SDS011;2865;53.114;9.130;2023-07-09T10:31:38;5.03;;;4.53;;
5684;SDS011;2865;53.114;9.130;2023-07-09T10:34:42;4.07;;;3.67;;
5684;SDS011;2865;53.114;9.130;2023-07-09T10:39:47;4.80;;;4.07;;
5684;SDS011;2865;53.114;9.130;2023-07-09T10:42:17;7.07;;;3.87;;
5684;SDS011;2865;53.114;9.130;2023-07-09T10:44:41;4.63;;;4.13;;
5684;SDS011;2865;53.114;9.130;2023-07-09T10:47:09;4.43;;;3.13;;
5684;SDS011;2865;53.114;9.130;2023-07-09T10:49:34;4.27;;;3.63;;
5684;SDS011;2865;53.114;9.130;2023-07-09T10:52:02;4.20;;;3.80;;
5684;SDS011;2865;53.114;9.130;2023-07-09T10:54:30;4.30;;;3.90;;
5684;SDS011;2865;53.114;9.130;2023-07-09T10:57:08;4.30;;;3.90;;
5684;SDS011;2865;53.114;9.130;2023-07-09T10:59:35;5.90;;;3.80;;
5684;SDS011;2865;53.114;9.130;2023-07-09T11:02:06;4.50;;;4.10;;
5684;SDS011;2865;53.114;9.130;2023-07-09T11:04:29;4.33;;;3.93;;
5684;SDS011;2865;53.114;9.130;2023-07-09T11:06:55;3.87;;;3.47;;
5684;SDS011;2865;53.114;9.130;2023-07-09T11:09:23;5.43;;;3.70;;
5684;SDS011;2865;53.114;9.130;2023-07-09T11:11:48;3.90;;;3.57;;
5684;SDS011;2865;53.114;9.130;2023-07-09T11:17:01;4.13;;;3.73;;
5684;SDS011;2865;53.114;9.130;2023-07-09T11:19:27;3.70;;;3.40;;
5684;SDS011;2865;53.114;9.130;2023-07-09T11:22:05;7.17;;;3.87;;
5684;SDS011;2865;53.114;9.130;2023-07-09T11:24:44;6.43;;;3.47;;
5684;SDS011;2865;53.114;9.130;2023-07-09T11:27:01;5.07;;;3.70;;
5684;SDS011;2865;53.114;9.130;2023-07-09T11:29:27;4.87;;;4.20;;
5684;SDS011;2865;53.114;9.130;2023-07-09T11:31:53;5.17;;;3.87;;
5684;SDS011;2865;53.114;9.130;2023-07-09T11:34:19;4.00;;;3.63;;
5684;SDS011;2865;53.114;9.130;2023-07-09T11:36:59;4.70;;;4.00;;
5684;SDS011;2865;53.114;9.130;2023-07-09T11:39:30;4.40;;;4.00;;
5684;SDS011;2865;53.114;9.130;2023-07-09T11:41:54;4.27;;;3.90;;
5684;SDS011;2865;53.114;9.130;2023-07-09T11:44:23;4.97;;;3.60;;
5684;SDS011;2865;53.114;9.130;2023-07-09T11:46:50;12.53;;;4.30;;
5684;SDS011;2865;53.114;9.130;2023-07-09T11:49:15;4.80;;;4.10;;
5684;SDS011;2865;53.114;9.130;2023-07-09T11:51:41;5.10;;;4.20;;
5684;SDS011;2865;53.114;9.130;2023-07-09T11:54:07;7.70;;;4.83;;
5684;SDS011;2865;53.114;9.130;2023-07-09T11:56:32;4.83;;;4.43;;
5684;SDS011;2865;53.114;9.130;2023-07-09T11:58:57;5.67;;;3.50;;
5684;SDS011;2865;53.114;9.130;2023-07-09T12:01:23;4.40;;;3.77;;
5684;SDS011;2865;53.114;9.130;2023-07-09T12:03:48;7.80;;;4.30;;
5684;SDS011;2865;53.114;9.130;2023-07-09T12:06:24;7.50;;;4.60;;
5684;SDS011;2865;53.114;9.130;2023-07-09T12:08:51;4.40;;;4.00;;
5684;SDS011;2865;53.114;9.130;2023-07-09T12:11:20;6.30;;;5.27;;
5684;SDS011;2865;53.114;9.130;2023-07-09T12:13:45;4.67;;;4.00;;
5684;SDS011;2865;53.114;9.130;2023-07-09T12:16:18;6.40;;;4.33;;
5684;SDS011;2865;53.114;9.130;2023-07-09T12:18:43;5.67;;;4.27;;
5684;SDS011;2865;53.114;9.130;2023-07-09T12:21:09;4.40;;;4.00;;
5684;SDS011;2865;53.114;9.130;2023-07-09T12:23:34;5.63;;;3.33;;
5684;SDS011;2865;53.114;9.130;2023-07-09T12:26:00;5.07;;;4.63;;
5684;SDS011;2865;53.114;9.130;2023-07-09T12:28:26;7.70;;;4.10;;
5684;SDS011;2865;53.114;9.130;2023-07-09T12:30:52;5.33;;;3.80;;
5684;SDS011;2865;53.114;9.130;2023-07-09T12:33:17;5.80;;;3.80;;
5684;SDS011;2865;53.114;9.130;2023-07-09T12:35:41;4.83;;;3.80;;
5684;SDS011;2865;53.114;9.130;2023-07-09T12:38:11;4.33;;;3.80;;
5684;SDS011;2865;53.114;9.130;2023-07-09T12:40:32;6.60;;;4.27;;
5684;SDS011;2865;53.114;9.130;2023-07-09T12:42:58;4.37;;;3.93;;
5684;SDS011;2865;53.114;9.130;2023-07-09T12:45:23;4.07;;;3.67;;
5684;SDS011;2865;53.114;9.130;2023-07-09T12:47:49;4.00;;;3.60;;
5684;SDS011;2865;53.114;9.130;2023-07-09T12:50:18;6.33;;;4.20;;
5684;SDS011;2865;53.114;9.130;2023-07-09T12:52:47;4.03;;;3.53;;
5684;SDS011;2865;53.114;9.130;2023-07-09T12:55:19;4.70;;;4.30;;
5684;SDS011;2865;53.114;9.130;2023-07-09T12:57:43;4.20;;;3.80;;
5684;SDS011;2865;53.114;9.130;2023-07-09T13:00:13;5.70;;;3.50;;
5684;SDS011;2865;53.114;9.130;2023-07-09T13:02:37;4.43;;;4.03;;
5684;SDS011;2865;53.114;9.130;2023-07-09T13:05:02;5.27;;;3.80;;
5684;SDS011;2865;53.114;9.130;2023-07-09T13:07:27;12.23;;;4.30;;
5684;SDS011;2865;53.114;9.130;2023-07-09T13:09:53;4.33;;;4.00;;
5684;SDS011;2865;53.114;9.130;2023-07-09T13:12:17;6.00;;;4.03;;
5684;SDS011;2865;53.114;9.130;2023-07-09T13:14:46;4.37;;;3.87;;
5684;SDS011;2865;53.114;9.130;2023-07-09T13:17:09;4.63;;;4.20;;
5684;SDS011;2865;53.114;9.130;2023-07-09T13:19:35;4.97;;;3.53;;
5684;SDS011;2865;53.114;9.130;2023-07-09T13:22:00;4.10;;;3.70;;
5684;SDS011;2865;53.114;9.130;2023-07-09T13:24:27;4.17;;;3.57;;
5684;SDS011;2865;53.114;9.130;2023-07-09T13:26:51;4.50;;;4.07;;
5684;SDS011;2865;53.114;9.130;2023-07-09T13:29:17;6.40;;;4.07;;
5684;SDS011;2865;53.114;9.130;2023-07-09T13:31:41;4.73;;;4.20;;
5684;SDS011;2865;53.114;9.130;2023-07-09T13:34:13;3.85;;;3.55;;
5684;SDS011;2865;53.114;9.130;2023-07-09T13:36:33;4.87;;;4.23;;
5684;SDS011;2865;53.114;9.130;2023-07-09T13:38:58;4.75;;;4.20;;
5684;SDS011;2865;53.114;9.130;2023-07-09T13:41:24;5.35;;;4.85;;
5684;SDS011;2865;53.114;9.130;2023-07-09T13:43:49;5.67;;;4.17;;
5684;SDS011;2865;53.114;9.130;2023-07-09T13:46:15;5.73;;;4.00;;
5684;SDS011;2865;53.114;9.130;2023-07-09T13:48:41;6.33;;;4.20;;
5684;SDS011;2865;53.114;9.130;2023-07-09T13:51:11;8.10;;;4.13;;
5684;SDS011;2865;53.114;9.130;2023-07-09T13:53:39;5.75;;;3.40;;
5684;SDS011;2865;53.114;9.130;2023-07-09T13:56:05;4.93;;;4.00;;
5684;SDS011;2865;53.114;9.130;2023-07-09T13:58:30;6.00;;;4.80;;
5684;SDS011;2865;53.114;9.130;2023-07-09T14:00:58;5.20;;;3.63;;
5684;SDS011;2865;53.114;9.130;2023-07-09T14:03:24;5.63;;;4.73;;
5684;SDS011;2865;53.114;9.130;2023-07-09T14:05:48;5.05;;;3.40;;
5684;SDS011;2865;53.114;9.130;2023-07-09T14:08:13;4.73;;;4.33;;
5684;SDS011;2865;53.114;9.130;2023-07-09T14:10:39;4.47;;;4.07;;
5684;SDS011;2865;53.114;9.130;2023-07-09T14:13:04;5.40;;;4.13;;
5684;SDS011;2865;53.114;9.130;2023-07-09T14:15:30;4.90;;;4.10;;
5684;SDS011;2865;53.114;9.130;2023-07-09T14:17:55;6.10;;;4.30;;
5684;SDS011;2865;53.114;9.130;2023-07-09T14:20:20;4.33;;;3.93;;
5684;SDS011;2865;53.114;9.130;2023-07-09T14:22:47;6.23;;;4.70;;
5684;SDS011;2865;53.114;9.130;2023-07-09T14:25:17;4.73;;;3.80;;
5684;SDS011;2865;53.114;9.130;2023-07-09T14:27:40;7.30;;;4.80;;
5684;SDS011;2865;53.114;9.130;2023-07-09T14:30:06;5.57;;;3.97;;
5684;SDS011;2865;53.114;9.130;2023-07-09T14:32:34;5.53;;;4.40;;
5684;SDS011;2865;53.114;9.130;2023-07-09T14:35:00;6.80;;;3.80;;
5684;SDS011;2865;53.114;9.130;2023-07-09T14:37:24;8.73;;;4.70;;
5684;SDS011;2865;53.114;9.130;2023-07-09T14:39:50;4.47;;;3.93;;
5684;SDS011;2865;53.114;9.130;2023-07-09T14:42:15;4.67;;;4.07;;
5684;SDS011;2865;53.114;9.130;2023-07-09T14:44:41;9.00;;;4.23;;
5684;SDS011;2865;53.114;9.130;2023-07-09T14:47:10;4.60;;;4.20;;
5684;SDS011;2865;53.114;9.130;2023-07-09T14:49:41;4.43;;;4.03;;
5684;SDS011;2865;53.114;9.130;2023-07-09T14:52:10;5.03;;;4.40;;
5684;SDS011;2865;53.114;9.130;2023-07-09T14:54:31;5.23;;;4.00;;
5684;SDS011;2865;53.114;9.130;2023-07-09T14:56:57;4.53;;;3.67;;
5684;SDS011;2865;53.114;9.130;2023-07-09T14:59:23;4.93;;;4.43;;
5684;SDS011;2865;53.114;9.130;2023-07-09T15:01:48;8.23;;;4.90;;
5684;SDS011;2865;53.114;9.130;2023-07-09T15:06:58;9.10;;;4.80;;
5684;SDS011;2865;53.114;9.130;2023-07-09T15:09:25;4.40;;;4.00;;
5684;SDS011;2865;53.114;9.130;2023-07-09T15:11:51;4.77;;;3.70;;
5684;SDS011;2865;53.114;9.130;2023-07-09T15:14:15;5.03;;;4.47;;
5684;SDS011;2865;53.114;9.130;2023-07-09T15:16:40;5.30;;;4.43;;
5684;SDS011;2865;53.114;9.130;2023-07-09T15:19:11;4.57;;;4.00;;
5684;SDS011;2865;53.114;9.130;2023-07-09T15:21:37;8.67;;;4.53;;